Time;durP1;ratioP1;P1;durP2;ratioP2;P2;SDS_P1;SDS_P2;PMS_P1;PMS_P2;Temp;Humidity;BMP_temperature;BMP_pressure;BME280_temperature;BME280_humidity;BME280_pressure;Samples;Min_cycle;Max_cycle;Signal;HPM_P1;HPM_P2
2022/12/01 00:00:52;;;;;;;10.70;4.38;;;2.70;99.90;;;;;;5028132;28;20026;-78
2022/12/01 00:03:18;;;;;;;0.82;0.82;;;2.60;99.90;;;;;;5024793;28;20029;-78
2022/12/01 00:05:43;;;;;;;0.93;0.93;;;2.60;99.90;;;;;;5026394;28;20073;-77
2022/12/01 00:08:09;;;;;;;1.20;1.20;;;2.60;99.90;;;;;;5033356;28;20030;-78
2022/12/01 00:10:35;;;;;;;7.35;1.85;;;2.60;99.90;;;;;;5028909;28;20049;-78
2022/12/01 00:13:02;;;;;;;3.70;1.85;;;2.70;99.90;;;;;;5032494;28;20033;-76
2022/12/01 00:15:30;;;;;;;2.60;2.40;;;2.60;99.90;;;;;;5026222;28;20075;-76
2022/12/01 00:17:58;;;;;;;0.68;0.68;;;2.60;99.90;;;;;;5022088;28;20026;-76
2022/12/01 00:20:23;;;;;;;0.70;0.70;;;2.50;99.90;;;;;;5019363;28;20497;-76
2022/12/01 00:22:49;;;;;;;0.82;0.82;;;2.60;99.90;;;;;;5020719;28;20069;-76
2022/12/01 00:25:16;;;;;;;0.80;0.80;;;2.60;99.90;;;;;;5015155;28;20025;-76
2022/12/01 00:27:42;;;;;;;1.35;1.35;;;2.60;99.90;;;;;;5020544;28;20030;-76
2022/12/01 00:30:10;;;;;;;0.60;0.60;;;2.60;99.90;;;;;;5026032;28;20029;-76
2022/12/01 00:32:36;;;;;;;0.80;0.80;;;2.70;99.90;;;;;;5023381;28;20128;-76
2022/12/01 00:35:03;;;;;;;2.00;1.90;;;2.70;99.90;;;;;;5019323;28;20534;-76
2022/12/01 00:37:30;;;;;;;1.30;1.15;;;2.70;99.90;;;;;;5032225;28;20037;-76
2022/12/01 00:39:56;;;;;;;0.75;0.75;;;2.60;99.90;;;;;;5017436;28;20043;-76
2022/12/01 00:42:22;;;;;;;0.70;0.70;;;2.50;99.90;;;;;;5021279;28;20033;-76
2022/12/01 00:44:48;;;;;;;0.80;0.80;;;2.60;99.90;;;;;;5027417;28;20399;-78
2022/12/01 00:47:14;;;;;;;0.75;0.75;;;2.60;99.90;;;;;;5025786;28;20022;-77
2022/12/01 00:49:39;;;;;;;0.80;0.80;;;2.60;99.90;;;;;;5019644;28;20033;-76
2022/12/01 00:52:06;;;;;;;0.80;0.80;;;2.60;99.90;;;;;;5021153;28;20022;-77
2022/12/01 00:54:32;;;;;;;5.97;3.67;;;2.70;99.90;;;;;;5028769;28;20488;-77
2022/12/01 00:56:58;;;;;;;4.32;2.97;;;2.70;99.90;;;;;;5020295;28;20037;-77
2022/12/01 00:59:24;;;;;;;0.80;0.80;;;2.60;99.90;;;;;;5024428;28;20029;-77
2022/12/01 01:01:50;;;;;;;0.80;0.80;;;2.50;99.90;;;;;;5024725;28;20055;-77
2022/12/01 01:04:16;;;;;;;1.83;1.73;;;2.60;99.90;;;;;;5014366;28;20492;-77
2022/12/01 01:06:44;;;;;;;1.20;1.20;;;2.60;99.90;;;;;;5024193;28;20053;-77
2022/12/01 01:09:11;;;;;;;0.60;0.60;;;2.60;99.90;;;;;;5011795;28;20495;-77
2022/12/01 01:11:36;;;;;;;0.80;0.80;;;2.50;99.90;;;;;;5012117;28;20044;-77
2022/12/01 01:14:03;;;;;;;0.70;0.70;;;2.60;99.90;;;;;;5026568;28;20030;-76
2022/12/01 01:16:28;;;;;;;0.73;0.73;;;2.60;99.90;;;;;;5025954;28;20056;-77
2022/12/01 01:18:54;;;;;;;0.80;0.80;;;2.90;99.90;;;;;;5018703;28;20026;-76
2022/12/01 01:21:21;;;;;;;0.90;0.90;;;2.60;99.90;;;;;;5030266;28;20065;-76
2022/12/01 01:23:48;;;;;;;1.50;1.50;;;2.70;99.90;;;;;;5018393;28;20021;-76
2022/12/01 01:26:18;;;;;;;0.70;0.70;;;2.70;99.90;;;;;;5018726;28;20018;-76
2022/12/01 01:28:45;;;;;;;0.70;0.70;;;2.60;99.90;;;;;;5006001;28;20033;-76
2022/12/01 01:31:14;;;;;;;0.68;0.68;;;2.70;99.90;;;;;;5031619;28;20049;-76
2022/12/01 01:33:39;;;;;;;4.90;2.30;;;2.70;99.90;;;;;;5022889;28;20045;-76
2022/12/01 01:36:06;;;;;;;2.35;2.25;;;2.60;99.90;;;;;;5024919;28;20357;-76
2022/12/01 01:38:33;;;;;;;1.88;1.85;;;2.60;99.90;;;;;;5019180;28;20047;-77
2022/12/01 01:40:59;;;;;;;0.93;0.93;;;2.50;99.90;;;;;;5017925;28;20041;-77
2022/12/01 01:43:43;;;;;;;0.80;0.80;;;2.70;99.90;;;;;;5022545;28;20026;-77
2022/12/01 01:46:30;;;;;;;0.80;0.80;;;2.60;99.90;;;;;;5023773;28;20053;-76
2022/12/01 01:49:08;;;;;;;0.88;0.88;;;2.60;99.90;;;;;;5024124;28;20061;-76
2022/12/01 01:51:47;;;;;;;0.68;0.68;;;2.60;99.90;;;;;;5008514;28;20096;-77
2022/12/01 01:54:18;;;;;;;0.70;0.70;;;2.70;99.90;;;;;;5016930;28;20113;-76
2022/12/01 01:56:46;;;;;;;0.80;0.80;;;2.60;99.90;;;;;;5021342;28;20497;-75
2022/12/01 01:59:15;;;;;;;0.60;0.60;;;2.60;99.90;;;;;;5013470;28;20113;-77
2022/12/01 02:01:40;;;;;;;0.80;0.80;;;2.60;99.90;;;;;;5011559;28;20040;-76
2022/12/01 02:04:06;;;;;;;3.15;1.95;;;2.70;99.90;;;;;;5023461;28;20116;-77
2022/12/01 02:06:32;;;;;;;0.85;0.85;;;2.60;99.90;;;;;;5020793;28;20030;-77
2022/12/01 02:08:58;;;;;;;0.88;0.88;;;2.60;99.90;;;;;;5021956;28;20021;-78
2022/12/01 02:12:03;;;;;;;2.78;2.60;;;2.60;99.90;;;;;;5027112;28;20388;-76
2022/12/01 02:14:52;;;;;;;4.97;4.45;;;2.70;99.90;;;;;;4997710;28;20037;-77
2022/12/01 02:17:34;;;;;;;0.80;0.80;;;2.70;99.90;;;;;;5023637;28;20029;-77
2022/12/01 02:20:12;;;;;;;0.80;0.80;;;2.60;99.90;;;;;;5023253;28;20030;-77
2022/12/01 02:22:55;;;;;;;1.90;1.80;;;2.70;99.90;;;;;;5027351;28;20041;-77
2022/12/01 02:25:58;;;;;;;0.75;0.75;;;2.70;99.90;;;;;;5028893;28;20026;-77
2022/12/01 02:28:55;;;;;;;3.63;3.15;;;2.70;99.90;;;;;;5033306;28;20026;-77
2022/12/01 02:31:40;;;;;;;0.88;0.88;;;2.70;99.90;;;;;;5031889;28;20025;-77
2022/12/01 02:34:24;;;;;;;1.10;1.10;;;2.70;99.90;;;;;;5028468;28;20364;-77
2022/12/01 02:37:05;;;;;;;1.10;1.10;;;2.70;99.90;;;;;;5023515;28;20376;-77
2022/12/01 02:39:41;;;;;;;0.90;0.90;;;2.80;99.90;;;;;;5022713;28;20041;-78
2022/12/01 02:42:48;;;;;;;0.85;0.85;;;2.80;99.90;;;;;;5025560;28;20033;-78
2022/12/01 02:45:08;;;;;;;0.98;0.98;;;2.80;99.90;;;;;;5028279;28;20022;-77
2022/12/01 02:47:37;;;;;;;0.80;0.80;;;2.80;99.90;;;;;;5026371;28;20419;-78
2022/12/01 02:50:05;;;;;;;1.00;1.00;;;2.80;99.90;;;;;;5022612;28;20017;-77
2022/12/01 02:52:31;;;;;;;0.90;0.90;;;2.80;99.90;;;;;;5019838;28;20072;-77
2022/12/01 02:54:56;;;;;;;0.80;0.80;;;2.70;99.90;;;;;;5025638;28;20026;-77
2022/12/01 02:57:23;;;;;;;1.75;1.67;;;2.70;99.90;;;;;;5014213;28;20029;-77
2022/12/01 02:59:52;;;;;;;1.13;1.13;;;2.70;99.90;;;;;;5023160;28;20415;-76
2022/12/01 03:02:26;;;;;;;0.90;0.90;;;2.80;99.90;;;;;;5016906;28;20054;-77
2022/12/01 03:05:03;;;;;;;0.80;0.80;;;2.80;99.90;;;;;;5016130;28;20018;-78
2022/12/01 03:07:54;;;;;;;0.90;0.90;;;2.90;99.90;;;;;;5018723;28;20053;-78
2022/12/01 03:10:39;;;;;;;0.82;0.82;;;2.70;99.90;;;;;;5021871;28;20033;-78
2022/12/01 03:13:25;;;;;;;1.00;1.00;;;2.70;99.90;;;;;;5024188;28;20029;-76
2022/12/01 03:16:12;;;;;;;1.80;1.70;;;2.70;99.90;;;;;;5010278;28;20030;-77
2022/12/01 03:19:11;;;;;;;14.10;8.07;;;2.60;99.90;;;;;;5019809;28;20487;-78
2022/12/01 03:21:41;;;;;;;0.90;0.90;;;2.70;99.90;;;;;;4973814;28;20445;-78
2022/12/01 03:24:22;;;;;;;4.28;2.35;;;2.70;99.90;;;;;;5023725;28;20036;-76
2022/12/01 03:26:55;;;;;;;2.20;2.10;;;2.60;99.90;;;;;;5021563;28;20058;-77
2022/12/01 03:29:26;;;;;;;1.00;1.00;;;2.60;99.90;;;;;;5024083;28;20026;-77
2022/12/01 03:31:57;;;;;;;1.08;1.08;;;2.60;99.90;;;;;;5027976;28;20063;-77
2022/12/01 03:34:31;;;;;;;0.88;0.88;;;2.50;99.90;;;;;;5026417;28;20028;-77
2022/12/01 03:37:05;;;;;;;1.65;1.65;;;2.50;99.90;;;;;;5008156;28;20049;-77
2022/12/01 03:39:34;;;;;;;1.30;1.30;;;2.60;99.90;;;;;;5020622;28;20041;-77
2022/12/01 03:42:14;;;;;;;1.20;1.20;;;2.60;99.90;;;;;;5024884;28;20029;-77
2022/12/01 03:44:49;;;;;;;1.10;1.10;;;2.50;99.90;;;;;;5018699;28;20061;-77
2022/12/01 03:47:30;;;;;;;1.70;1.70;;;2.50;99.90;;;;;;5023150;28;20025;-77
2022/12/01 03:49:58;;;;;;;1.17;1.17;;;2.50;99.90;;;;;;4999982;28;20021;-77
2022/12/01 03:52:32;;;;;;;2.35;2.25;;;2.40;99.90;;;;;;5026629;28;20029;-78
2022/12/01 03:55:08;;;;;;;1.10;1.10;;;2.30;99.90;;;;;;5013404;28;20026;-77
2022/12/01 03:58:00;;;;;;;1.10;1.10;;;2.20;99.90;;;;;;5026402;28;20030;-76
2022/12/01 04:00:27;;;;;;;1.30;1.30;;;2.10;99.90;;;;;;5015464;28;20105;-77
2022/12/01 04:02:58;;;;;;;1.17;1.17;;;2.00;99.90;;;;;;5025600;28;20480;-77
2022/12/01 04:05:24;;;;;;;0.95;0.95;;;2.00;99.90;;;;;;5014908;28;20041;-78
2022/12/01 04:07:50;;;;;;;1.02;1.02;;;1.90;99.90;;;;;;5024638;28;20073;-77
2022/12/01 04:10:16;;;;;;;1.00;1.00;;;1.90;99.90;;;;;;5026497;28;20017;-76
2022/12/01 04:12:42;;;;;;;0.90;0.90;;;1.90;99.90;;;;;;5023030;28;20032;-77
2022/12/01 04:15:11;;;;;;;1.00;1.00;;;2.00;99.90;;;;;;5018907;28;20045;-77
2022/12/01 04:17:37;;;;;;;1.00;1.00;;;2.00;99.90;;;;;;5032997;28;20487;-77
2022/12/01 04:20:05;;;;;;;1.33;1.33;;;1.90;99.90;;;;;;5019793;28;20037;-77
2022/12/01 04:22:31;;;;;;;1.10;1.10;;;1.90;99.90;;;;;;5022083;28;20022;-77
2022/12/01 04:24:57;;;;;;;2.45;2.35;;;2.00;99.90;;;;;;5024861;28;20040;-77
2022/12/01 04:27:22;;;;;;;1.13;1.13;;;2.00;99.90;;;;;;5021938;28;20025;-77
2022/12/01 04:29:48;;;;;;;1.02;1.02;;;2.00;99.90;;;;;;5017846;28;20018;-77
2022/12/01 04:32:13;;;;;;;1.10;1.10;;;2.00;99.90;;;;;;5022706;28;20041;-77
2022/12/01 04:34:39;;;;;;;1.30;1.30;;;2.10;99.90;;;;;;5024835;28;20043;-76
2022/12/01 04:37:06;;;;;;;1.10;1.10;;;2.00;99.90;;;;;;5011168;28;20037;-76
2022/12/01 04:39:32;;;;;;;1.08;1.08;;;2.00;99.90;;;;;;5026379;28;20060;-77
2022/12/01 04:41:57;;;;;;;1.20;1.20;;;2.10;99.90;;;;;;5021968;28;20087;-77
2022/12/01 04:44:23;;;;;;;1.25;1.25;;;2.00;99.90;;;;;;5019418;28;20034;-77
2022/12/01 04:46:51;;;;;;;1.20;1.20;;;2.00;99.90;;;;;;5023905;28;20116;-75
2022/12/01 04:49:16;;;;;;;1.30;1.30;;;2.10;99.90;;;;;;5027140;28;20054;-77
2022/12/01 04:51:42;;;;;;;1.10;1.10;;;2.10;99.90;;;;;;5020443;28;20061;-77
2022/12/01 04:54:07;;;;;;;1.23;1.23;;;2.10;99.90;;;;;;5016841;28;20029;-77
2022/12/01 04:56:33;;;;;;;1.23;1.23;;;2.20;99.90;;;;;;5020784;28;20021;-77
2022/12/01 04:58:59;;;;;;;1.10;1.10;;;2.10;99.90;;;;;;5018830;28;20029;-77
2022/12/01 05:01:25;;;;;;;1.20;1.20;;;2.20;99.90;;;;;;5022180;28;20501;-77
2022/12/01 05:03:51;;;;;;;1.15;1.15;;;2.20;99.90;;;;;;5024564;28;20064;-77
2022/12/01 05:06:19;;;;;;;1.02;1.02;;;2.30;99.90;;;;;;5019886;28;20387;-80
2022/12/01 05:08:45;;;;;;;1.27;1.27;;;2.30;99.90;;;;;;5016320;28;20030;-78
2022/12/01 05:11:11;;;;;;;1.13;1.13;;;2.20;99.90;;;;;;5021357;28;20021;-79
2022/12/01 05:13:43;;;;;;;1.40;1.40;;;2.10;99.90;;;;;;5017304;28;20113;-77
2022/12/01 05:16:18;;;;;;;1.20;1.20;;;2.20;99.90;;;;;;5012984;28;20475;-77
2022/12/01 05:21:37;;;;;;;1.10;1.10;;;2.00;99.90;;;;;;5026437;28;20039;-78
2022/12/01 05:24:04;;;;;;;1.35;1.35;;;1.90;99.90;;;;;;5020057;28;20022;-77
2022/12/01 05:26:29;;;;;;;1.90;1.90;;;1.90;99.90;;;;;;5020685;28;20050;-78
2022/12/01 05:28:55;;;;;;;1.52;1.52;;;2.00;99.90;;;;;;5023575;28;20353;-78
2022/12/01 05:31:20;;;;;;;1.50;1.50;;;2.00;99.90;;;;;;5013962;28;20538;-78
2022/12/01 05:33:46;;;;;;;2.40;2.30;;;2.00;99.90;;;;;;5024367;28;20033;-78
2022/12/01 05:36:11;;;;;;;1.30;1.30;;;2.00;99.90;;;;;;5026976;28;20037;-79
2022/12/01 05:38:37;;;;;;;1.30;1.30;;;1.80;99.90;;;;;;5022009;28;20022;-78
2022/12/01 05:41:02;;;;;;;1.30;1.30;;;1.70;99.90;;;;;;5020036;28;20037;-77
2022/12/01 05:43:28;;;;;;;1.40;1.40;;;1.80;99.90;;;;;;5028439;28;20033;-78
2022/12/01 05:45:54;;;;;;;1.13;1.13;;;1.80;99.90;;;;;;5029491;28;20021;-78
2022/12/01 05:48:20;;;;;;;1.20;1.20;;;1.90;99.90;;;;;;5023257;28;20038;-78
2022/12/01 05:50:45;;;;;;;2.88;2.78;;;1.90;99.90;;;;;;5022893;28;20026;-77
2022/12/01 05:53:12;;;;;;;2.08;1.98;;;1.80;99.90;;;;;;5024065;28;20044;-77
2022/12/01 05:55:38;;;;;;;3.05;2.85;;;1.80;99.90;;;;;;5033785;28;20036;-78
2022/12/01 05:58:03;;;;;;;3.33;3.13;;;1.90;99.90;;;;;;5023380;28;20473;-77
2022/12/01 06:00:29;;;;;;;3.03;2.92;;;1.90;99.90;;;;;;5023136;28;20034;-77
2022/12/01 06:02:54;;;;;;;1.45;1.45;;;1.90;99.90;;;;;;5028161;28;20018;-77
2022/12/01 06:05:20;;;;;;;4.10;3.40;;;2.00;99.90;;;;;;5028426;28;20025;-77
2022/12/01 06:07:46;;;;;;;4.13;2.75;;;1.90;99.90;;;;;;5021994;28;20033;-75
2022/12/01 06:10:12;;;;;;;1.40;1.40;;;1.90;99.90;;;;;;5022924;28;20026;-78
2022/12/01 06:12:37;;;;;;;1.67;1.67;;;2.00;99.90;;;;;;5035665;28;20036;-77
2022/12/01 06:15:05;;;;;;;35.40;19.45;;;2.00;99.90;;;;;;5021919;28;20388;-77
2022/12/01 06:17:30;;;;;;;2.45;2.28;;;2.00;99.90;;;;;;5027957;28;20113;-76
2022/12/01 06:19:56;;;;;;;2.10;2.00;;;2.00;99.90;;;;;;5027840;28;20129;-77
2022/12/01 06:22:21;;;;;;;6.90;3.65;;;2.00;99.90;;;;;;5022283;28;20025;-77
2022/12/01 06:24:47;;;;;;;1.70;1.70;;;2.10;99.90;;;;;;5020060;28;20022;-77
2022/12/01 06:27:12;;;;;;;11.23;4.80;;;2.10;99.90;;;;;;5015086;28;20022;-77
2022/12/01 06:29:38;;;;;;;8.07;5.07;;;2.10;99.90;;;;;;5017470;28;20018;-77
2022/12/01 06:32:04;;;;;;;4.45;4.20;;;2.20;99.90;;;;;;5016118;28;20021;-77
2022/12/01 06:34:29;;;;;;;2.60;2.45;;;2.20;99.90;;;;;;5015746;28;20116;-77
2022/12/01 06:36:55;;;;;;;4.00;3.30;;;2.30;99.90;;;;;;5022641;28;20052;-77
2022/12/01 06:39:21;;;;;;;2.45;1.92;;;2.30;99.90;;;;;;5037089;28;20029;-77
2022/12/01 06:41:46;;;;;;;2.58;2.47;;;2.20;99.90;;;;;;5017025;28;20026;-77
2022/12/01 06:44:12;;;;;;;3.00;2.90;;;2.20;99.90;;;;;;5027650;28;20029;-77
2022/12/01 06:46:38;;;;;;;1.40;1.40;;;2.20;99.90;;;;;;5021098;28;20071;-77
2022/12/01 06:49:04;;;;;;;1.50;1.50;;;2.20;99.90;;;;;;5024863;28;20026;-75
2022/12/01 06:51:32;;;;;;;2.58;2.47;;;2.30;99.90;;;;;;5028892;28;20496;-78
2022/12/01 06:53:58;;;;;;;2.45;2.35;;;2.30;99.90;;;;;;5027855;28;20034;-77
2022/12/01 06:56:24;;;;;;;1.75;1.75;;;2.30;99.90;;;;;;5025106;28;20040;-77
2022/12/01 06:58:50;;;;;;;2.88;2.67;;;2.30;99.90;;;;;;5020626;28;20026;-77
2022/12/01 07:01:16;;;;;;;1.52;1.52;;;2.40;99.90;;;;;;5015384;28;20029;-77
2022/12/01 07:03:42;;;;;;;1.77;1.77;;;2.40;99.90;;;;;;5016395;28;20484;-77
2022/12/01 07:06:08;;;;;;;1.65;1.65;;;2.40;99.90;;;;;;5021341;28;20040;-77
2022/12/01 07:08:33;;;;;;;1.80;1.80;;;2.40;99.90;;;;;;5031826;28;20109;-77
2022/12/01 07:11:06;;;;;;;1.73;1.73;;;2.40;99.90;;;;;;5021810;28;20177;-77
2022/12/01 07:13:32;;;;;;;1.80;1.80;;;2.50;99.90;;;;;;5023701;28;20076;-77
2022/12/01 07:15:58;;;;;;;1.65;1.65;;;2.50;99.90;;;;;;5034981;28;20032;-77
2022/12/01 07:18:23;;;;;;;1.92;1.92;;;2.50;99.90;;;;;;5023088;28;20125;-76
2022/12/01 07:20:49;;;;;;;2.28;2.17;;;2.50;99.90;;;;;;5038509;28;20034;-77
2022/12/01 07:23:15;;;;;;;1.63;1.63;;;2.50;99.90;;;;;;5030689;28;20520;-77
2022/12/01 07:25:40;;;;;;;2.08;2.08;;;2.50;99.90;;;;;;5028139;28;20030;-77
2022/12/01 07:28:06;;;;;;;3.45;3.25;;;2.60;99.90;;;;;;5028513;28;20092;-77
2022/12/01 07:30:31;;;;;;;2.22;2.13;;;2.60;99.90;;;;;;5028587;28;20076;-77
2022/12/01 07:32:58;;;;;;;2.00;2.00;;;2.50;99.90;;;;;;5029060;28;20082;-76
2022/12/01 07:35:23;;;;;;;1.75;1.75;;;2.50;99.90;;;;;;5026804;28;20052;-77
2022/12/01 07:37:54;;;;;;;13.20;3.85;;;2.60;99.90;;;;;;5041446;28;20037;-77
2022/12/01 07:40:20;;;;;;;1.50;1.50;;;2.70;99.90;;;;;;5034254;28;20037;-77
2022/12/01 07:42:45;;;;;;;3.00;2.67;;;2.60;99.90;;;;;;5046312;28;20558;-77
2022/12/01 07:45:11;;;;;;;2.30;2.20;;;2.70;99.90;;;;;;5034252;28;20017;-77
2022/12/01 07:47:36;;;;;;;2.60;2.50;;;2.80;99.90;;;;;;5023570;28;20707;-77
2022/12/01 07:50:02;;;;;;;1.55;1.55;;;2.80;99.90;;;;;;5025258;28;20106;-77
2022/12/01 07:52:28;;;;;;;1.73;1.73;;;2.80;99.90;;;;;;5027843;28;20026;-77
2022/12/01 07:54:53;;;;;;;3.53;3.28;;;2.90;99.90;;;;;;5025396;28;20033;-76
2022/12/01 07:57:19;;;;;;;1.52;1.52;;;2.90;99.90;;;;;;5025663;28;20028;-77
2022/12/01 07:59:45;;;;;;;4.55;2.35;;;3.00;99.90;;;;;;5012361;28;20048;-77
2022/12/01 08:02:10;;;;;;;3.55;2.90;;;3.10;99.90;;;;;;5025266;28;20057;-77
2022/12/01 08:04:36;;;;;;;2.67;2.47;;;3.10;99.90;;;;;;5020221;28;20021;-76
2022/12/01 08:07:02;;;;;;;6.22;4.30;;;3.10;99.90;;;;;;5018756;28;20029;-77
2022/12/01 08:09:28;;;;;;;2.58;2.38;;;3.10;99.90;;;;;;5025384;28;20029;-77
2022/12/01 08:11:53;;;;;;;1.85;1.85;;;3.20;99.90;;;;;;5026712;28;20092;-77
2022/12/01 08:14:19;;;;;;;1.88;1.75;;;3.20;99.90;;;;;;5019783;28;20484;-76
2022/12/01 08:16:44;;;;;;;5.55;3.28;;;3.20;99.90;;;;;;5017892;28;20036;-77
2022/12/01 08:19:10;;;;;;;3.33;3.03;;;3.30;99.90;;;;;;5024774;28;20079;-77
2022/12/01 08:21:36;;;;;;;2.15;2.05;;;3.30;99.90;;;;;;5026144;28;20045;-77
2022/12/01 08:24:02;;;;;;;1.20;1.20;;;3.40;99.90;;;;;;5018989;28;20112;-77
2022/12/01 08:26:28;;;;;;;2.40;2.30;;;3.40;99.90;;;;;;5013225;28;20029;-77
2022/12/01 08:28:54;;;;;;;2.55;2.28;;;3.50;99.90;;;;;;5020010;28;20033;-77
2022/12/01 08:31:24;;;;;;;2.15;2.05;;;3.50;99.90;;;;;;5031866;28;20087;-77
2022/12/01 08:33:50;;;;;;;2.05;1.85;;;3.50;99.90;;;;;;5020981;28;20040;-74
2022/12/01 08:36:16;;;;;;;2.20;2.10;;;3.60;99.90;;;;;;5020094;28;20050;-77
2022/12/01 08:38:43;;;;;;;2.30;2.20;;;3.60;99.90;;;;;;5027269;28;20384;-78
2022/12/01 08:41:09;;;;;;;1.67;1.58;;;3.70;99.90;;;;;;5025586;28;20399;-77
2022/12/01 08:43:43;;;;;;;2.35;2.25;;;3.70;99.90;;;;;;5020256;28;20029;-77
2022/12/01 08:46:09;;;;;;;1.00;1.00;;;3.80;99.90;;;;;;5017833;28;20061;-77
2022/12/01 08:48:34;;;;;;;1.17;1.17;;;3.80;99.90;;;;;;5023560;28;20451;-77
2022/12/01 08:51:01;;;;;;;1.30;1.30;;;3.80;99.90;;;;;;5025647;28;20456;-77
2022/12/01 08:53:26;;;;;;;1.20;1.20;;;3.80;99.90;;;;;;5020741;28;20026;-77
2022/12/01 08:55:52;;;;;;;1.63;1.52;;;3.90;99.90;;;;;;5028206;28;20025;-77
2022/12/01 08:58:17;;;;;;;1.23;1.23;;;3.90;99.90;;;;;;5020178;28;20040;-77
2022/12/01 09:00:43;;;;;;;1.35;1.35;;;3.80;99.90;;;;;;5017630;28;20030;-77
2022/12/01 09:03:08;;;;;;;2.25;2.13;;;3.90;99.90;;;;;;5022740;28;20036;-74
2022/12/01 09:05:34;;;;;;;0.98;0.98;;;4.00;99.90;;;;;;5014567;28;20037;-77
2022/12/01 09:08:42;;;;;;;1.13;1.13;;;4.00;99.90;;;;;;5024474;28;20017;-77
2022/12/01 09:10:51;;;;;;;2.50;2.35;;;4.00;99.90;;;;;;5011107;28;20044;-76
2022/12/01 09:13:17;;;;;;;2.08;1.98;;;4.00;99.90;;;;;;5017214;28;20034;-77
2022/12/01 09:15:42;;;;;;;7.05;3.60;;;4.10;99.90;;;;;;5018347;28;20026;-77
2022/12/01 09:18:08;;;;;;;1.00;1.00;;;4.00;99.90;;;;;;5023528;28;20036;-77
2022/12/01 09:20:33;;;;;;;6.20;1.90;;;4.00;99.90;;;;;;5025727;28;20488;-78
2022/12/01 09:22:59;;;;;;;1.02;1.02;;;4.10;99.90;;;;;;5025395;28;20041;-78
2022/12/01 09:25:24;;;;;;;0.93;0.93;;;4.10;99.90;;;;;;5018590;28;20029;-77
2022/12/01 09:27:50;;;;;;;0.82;0.82;;;4.10;99.90;;;;;;5035163;28;20026;-77
2022/12/01 09:30:16;;;;;;;2.75;2.55;;;4.20;99.90;;;;;;5022734;28;20026;-77
2022/12/01 09:32:41;;;;;;;3.22;2.83;;;4.20;99.90;;;;;;5023621;28;20037;-77
2022/12/01 09:35:07;;;;;;;1.65;1.55;;;4.30;99.90;;;;;;5026535;28;20055;-77
2022/12/01 09:37:32;;;;;;;2.33;2.22;;;4.30;99.90;;;;;;5012943;28;20026;-77
2022/12/01 09:39:58;;;;;;;3.33;3.13;;;4.30;99.90;;;;;;5029003;28;20076;-77
2022/12/01 09:42:26;;;;;;;1.98;1.67;;;4.30;99.90;;;;;;5020214;28;20061;-77
2022/12/01 09:44:56;;;;;;;3.80;2.53;;;4.30;99.90;;;;;;5025343;28;20024;-77
2022/12/01 09:47:32;;;;;;;3.53;3.25;;;4.30;99.90;;;;;;5011128;28;20026;-77
2022/12/01 09:50:00;;;;;;;;;;;4.30;99.90;;;;;;5011959;28;20033;-77
2022/12/01 09:52:32;;;;;;;6.15;2.85;;;4.30;99.90;;;;;;5025548;28;20421;-76
2022/12/01 09:54:59;;;;;;;0.70;0.70;;;4.40;99.90;;;;;;5030273;28;20037;-78
2022/12/01 09:57:27;;;;;;;2.05;1.95;;;4.30;99.90;;;;;;5031437;28;20036;-78
2022/12/01 09:59:53;;;;;;;2.25;1.77;;;4.40;99.90;;;;;;5031338;28;20079;-78
2022/12/01 10:02:32;;;;;;;7.18;3.05;;;4.30;99.90;;;;;;5031372;28;20033;-77
2022/12/01 10:05:03;;;;;;;2.60;2.40;;;4.30;99.90;;;;;;5031530;28;20502;-78
2022/12/01 10:07:47;;;;;;;0.63;0.63;;;4.40;99.90;;;;;;5012118;28;20400;-77
2022/12/01 10:10:25;;;;;;;1.33;1.33;;;4.40;99.90;;;;;;5011614;28;20046;-78
2022/12/01 10:12:51;;;;;;;1.88;1.77;;;4.40;99.90;;;;;;5011669;28;20030;-77
2022/12/01 10:15:35;;;;;;;3.50;2.05;;;4.50;99.90;;;;;;5010375;28;20041;-78
2022/12/01 10:18:27;;;;;;;3.00;2.90;;;4.50;99.90;;;;;;5011530;28;20030;-77
2022/12/01 10:21:20;;;;;;;0.50;0.50;;;4.50;99.90;;;;;;5011473;28;20025;-77
2022/12/01 10:24:15;;;;;;;0.60;0.60;;;4.60;99.90;;;;;;5024896;28;20124;-77
2022/12/01 10:26:59;;;;;;;0.70;0.70;;;4.60;99.90;;;;;;5011476;28;20014;-77
2022/12/01 10:29:44;;;;;;;1.92;1.80;;;4.60;99.90;;;;;;5024868;28;20025;-76
2022/12/01 10:32:20;;;;;;;1.02;1.02;;;4.70;99.90;;;;;;5009368;28;20080;-76
2022/12/01 10:34:46;;;;;;;1.33;1.30;;;4.80;99.90;;;;;;5033115;28;20021;-77
2022/12/01 10:37:20;;;;;;;1.25;1.25;;;4.70;99.90;;;;;;5021739;28;20025;-77
2022/12/01 10:39:48;;;;;;;1.55;1.23;;;4.80;99.90;;;;;;5031723;28;20029;-77
2022/12/01 10:42:39;;;;;;;0.65;0.65;;;4.80;99.90;;;;;;5014686;28;20045;-76
2022/12/01 10:45:12;;;;;;;1.95;1.85;;;4.80;99.90;;;;;;5034279;28;20021;-77
2022/12/01 10:48:14;;;;;;;0.73;0.73;;;4.80;99.90;;;;;;5032459;28;20048;-77
2022/12/01 10:50:41;;;;;;;0.80;0.80;;;4.90;99.90;;;;;;5025400;28;20044;-77
2022/12/01 10:53:19;;;;;;;2.30;1.75;;;4.90;99.90;;;;;;5019599;28;20025;-77
2022/12/01 10:56:03;;;;;;;0.75;0.68;;;5.10;99.90;;;;;;5032421;28;20030;-77
2022/12/01 10:58:32;;;;;;;0.70;0.70;;;4.90;99.90;;;;;;5024114;28;20029;-77
2022/12/01 11:01:02;;;;;;;0.80;0.80;;;4.90;99.90;;;;;;5019621;28;20029;-77
2022/12/01 11:03:33;;;;;;;4.78;1.15;;;5.00;99.90;;;;;;5021043;28;20160;-77
2022/12/01 11:06:01;;;;;;;4.93;4.57;;;5.00;99.90;;;;;;5026142;28;20026;-78
2022/12/01 11:08:38;;;;;;;0.55;0.55;;;5.00;99.90;;;;;;5027217;28;20392;-77
2022/12/01 11:11:04;;;;;;;1.05;1.05;;;5.10;99.90;;;;;;4994613;28;20392;-77
2022/12/01 11:13:34;;;;;;;1.85;1.52;;;5.20;99.90;;;;;;5022464;28;20025;-77
2022/12/01 11:16:02;;;;;;;2.08;1.10;;;5.20;99.90;;;;;;5021680;28;20041;-77
2022/12/01 11:18:36;;;;;;;3.05;2.78;;;5.20;99.90;;;;;;5020429;28;20026;-77
2022/12/01 11:21:14;;;;;;;1.38;1.38;;;5.20;99.90;;;;;;5022508;28;20032;-77
2022/12/01 11:23:48;;;;;;;1.92;1.35;;;5.20;99.90;;;;;;5026011;28;20025;-77
2022/12/01 11:26:24;;;;;;;1.45;1.25;;;5.20;99.90;;;;;;5026558;28;20032;-77
2022/12/01 11:29:03;;;;;;;0.80;0.80;;;5.10;99.90;;;;;;5013925;28;20028;-77
2022/12/01 11:31:39;;;;;;;0.50;0.50;;;5.20;99.90;;;;;;5020274;28;20026;-77
2022/12/01 11:34:27;;;;;;;1.05;1.05;;;5.20;99.90;;;;;;5032465;28;20108;-77
2022/12/01 11:36:56;;;;;;;1.70;1.58;;;5.20;99.90;;;;;;5014308;28;20407;-77
2022/12/01 11:39:26;;;;;;;3.22;2.58;;;5.30;99.90;;;;;;5026948;28;20032;-77
2022/12/01 11:42:18;;;;;;;0.90;0.90;;;5.30;99.90;;;;;;5023357;28;20033;-78
2022/12/01 11:44:53;;;;;;;1.25;1.25;;;5.30;99.90;;;;;;5028439;28;20024;-77
2022/12/01 11:47:22;;;;;;;2.03;1.92;;;5.30;99.90;;;;;;5033192;28;20026;-77
2022/12/01 11:49:53;;;;;;;3.50;2.25;;;5.40;99.90;;;;;;5025112;28;20026;-77
2022/12/01 11:52:27;;;;;;;0.50;0.50;;;5.30;99.90;;;;;;5026889;28;20065;-77
2022/12/01 11:55:01;;;;;;;1.25;1.25;;;5.50;99.90;;;;;;5013561;28;20033;-78
2022/12/01 11:57:29;;;;;;;3.38;1.95;;;5.50;99.90;;;;;;5025648;28;20029;-77
2022/12/01 11:59:55;;;;;;;0.60;0.60;;;5.50;99.90;;;;;;5023305;28;20026;-77
2022/12/01 12:02:39;;;;;;;1.88;1.48;;;5.50;99.90;;;;;;5020698;28;20480;-77
2022/12/01 12:05:37;;;;;;;0.60;0.60;;;5.50;99.90;;;;;;5018232;28;20029;-77
2022/12/01 12:08:38;;;;;;;1.45;0.95;;;5.60;99.90;;;;;;4993587;28;20026;-77
2022/12/01 12:11:23;;;;;;;0.50;0.50;;;5.70;99.90;;;;;;4992291;28;20049;-77
2022/12/01 12:14:13;;;;;;;0.60;0.60;;;5.70;99.90;;;;;;5009690;28;20033;-77
2022/12/01 12:16:45;;;;;;;5.22;1.60;;;5.70;99.90;;;;;;5027414;28;20029;-77
2022/12/01 12:19:45;;;;;;;4.13;1.50;;;5.60;99.90;;;;;;5024250;28;20076;-77
2022/12/01 12:22:28;;;;;;;0.50;0.50;;;5.60;99.90;;;;;;5012908;28;20105;-77
2022/12/01 12:25:26;;;;;;;2.13;1.13;;;5.60;99.90;;;;;;5026118;28;20510;-77
2022/12/01 12:28:21;;;;;;;6.00;5.45;;;5.60;99.90;;;;;;4958988;28;20043;-78
2022/12/01 12:31:32;;;;;;;0.60;0.60;;;5.50;99.90;;;;;;5012643;28;20101;-77
2022/12/01 12:34:22;;;;;;;5.93;1.95;;;5.50;99.90;;;;;;5006031;28;20026;-77
2022/12/01 12:36:56;;;;;;;1.63;1.52;;;5.60;99.90;;;;;;5016874;28;20044;-78
2022/12/01 12:39:39;;;;;;;1.67;1.63;;;5.60;99.90;;;;;;5031054;28;20026;-77
2022/12/01 12:42:36;;;;;;;0.60;0.60;;;5.60;99.90;;;;;;5020192;28;20022;-78
2022/12/01 12:45:36;;;;;;;0.75;0.75;;;5.70;99.90;;;;;;4985112;28;20507;-77
2022/12/01 12:48:16;;;;;;;2.70;2.22;;;5.60;99.90;;;;;;4995616;28;20033;-77
2022/12/01 12:51:09;;;;;;;0.50;0.50;;;5.70;99.90;;;;;;5019146;28;20014;-77
2022/12/01 12:53:44;;;;;;;0.60;0.60;;;5.60;99.90;;;;;;5020886;28;20116;-77
2022/12/01 12:56:13;;;;;;;2.80;2.70;;;5.70;99.90;;;;;;5026706;28;20434;-77
2022/12/01 12:58:52;;;;;;;1.77;1.10;;;5.80;99.90;;;;;;5010934;28;20029;-78
2022/12/01 13:01:32;;;;;;;0.85;0.85;;;5.80;99.90;;;;;;4992599;28;20453;-77
2022/12/01 13:03:59;;;;;;;0.98;0.98;;;5.70;99.90;;;;;;5008989;28;20041;-77
2022/12/01 13:06:37;;;;;;;0.50;0.50;;;5.70;99.90;;;;;;5012649;28;20025;-77
2022/12/01 13:09:25;;;;;;;0.88;0.88;;;5.60;99.90;;;;;;5030434;28;20022;-77
2022/12/01 13:12:14;;;;;;;1.90;1.80;;;5.60;99.90;;;;;;5017332;28;20032;-77
2022/12/01 13:14:51;;;;;;;1.95;1.95;;;5.60;99.90;;;;;;5019916;28;20400;-78
2022/12/01 13:17:41;;;;;;;0.60;0.60;;;5.70;99.90;;;;;;5016310;28;20095;-77
2022/12/01 13:20:14;;;;;;;0.80;0.80;;;5.60;99.90;;;;;;5016724;28;20044;-77
2022/12/01 13:22:39;;;;;;;1.95;1.85;;;5.70;99.90;;;;;;5021751;28;20079;-78